地図

経路データ

SID SEASON NUMBER BASIN SUBBASIN NAME ISO_TIME NATURE LAT LON WMO_WIND WMO_PRES WMO_AGENCY TRACK_TYPE DIST2LAND LANDFALL IFLAG USA_AGENCY USA_ATCF_ID USA_LAT USA_LON USA_RECORD USA_STATUS USA_WIND USA_PRES USA_SSHS USA_R34_NE USA_R34_SE USA_R34_SW USA_R34_NW USA_R50_NE USA_R50_SE USA_R50_SW USA_R50_NW USA_R64_NE USA_R64_SE USA_R64_SW USA_R64_NW USA_POCI USA_ROCI USA_RMW USA_EYE TOKYO_LAT TOKYO_LON TOKYO_GRADE TOKYO_WIND TOKYO_PRES TOKYO_R50_DIR TOKYO_R50_LONG TOKYO_R50_SHORT TOKYO_R30_DIR TOKYO_R30_LONG TOKYO_R30_SHORT TOKYO_LAND CMA_LAT CMA_LON CMA_CAT CMA_WIND CMA_PRES HKO_LAT HKO_LON HKO_CAT HKO_WIND HKO_PRES NEWDELHI_LAT NEWDELHI_LON NEWDELHI_GRADE NEWDELHI_WIND NEWDELHI_PRES NEWDELHI_CI NEWDELHI_DP NEWDELHI_POCI REUNION_LAT REUNION_LON REUNION_TYPE REUNION_WIND REUNION_PRES REUNION_TNUM REUNION_CI REUNION_RMW REUNION_R34_NE REUNION_R34_SE REUNION_R34_SW REUNION_R34_NW REUNION_R50_NE REUNION_R50_SE REUNION_R50_SW REUNION_R50_NW REUNION_R64_NE REUNION_R64_SE REUNION_R64_SW REUNION_R64_NW BOM_LAT BOM_LON BOM_TYPE BOM_WIND BOM_PRES BOM_TNUM BOM_CI BOM_RMW BOM_R34_NE BOM_R34_SE BOM_R34_SW BOM_R34_NW BOM_R50_NE BOM_R50_SE BOM_R50_SW BOM_R50_NW BOM_R64_NE BOM_R64_SE BOM_R64_SW BOM_R64_NW BOM_ROCI BOM_POCI BOM_EYE BOM_POS_METHOD BOM_PRES_METHOD NADI_LAT NADI_LON NADI_CAT NADI_WIND NADI_PRES WELLINGTON_LAT WELLINGTON_LON WELLINGTON_WIND WELLINGTON_PRES DS824_LAT DS824_LON DS824_STAGE DS824_WIND DS824_PRES TD9636_LAT TD9636_LON TD9636_STAGE TD9636_WIND TD9636_PRES TD9635_LAT TD9635_LON TD9635_WIND TD9635_PRES TD9635_ROCI NEUMANN_LAT NEUMANN_LON NEUMANN_CLASS NEUMANN_WIND NEUMANN_PRES MLC_LAT MLC_LON MLC_CLASS MLC_WIND MLC_PRES USA_GUST BOM_GUST BOM_GUST_PER REUNION_GUST REUNION_GUST_PER USA_SEAHGT USA_SEARAD_NE USA_SEARAD_SE USA_SEARAD_SW USA_SEARAD_NW STORM_SPEED STORM_DIR
1985050S12076 1985 25 SI MM NOT_NAMED 1985-02-18 12:00:00 TS -11.8000 76.2000 main 2042 2042 O___________O_ jtwc_sh SH251985 -11.8000 75.7000 XX 30 -5 -11.8000 76.7000 TC 30 6 133
1985050S12076 1985 25 SI MM NOT_NAMED 1985-02-18 15:00:00 TS -11.9900 76.4075 main 2058 2056 P___________P_ SH251985 -11.9902 76.2074 XX 32 -5 -11.9899 76.6077 TC 32 6 129
1985050S12076 1985 25 SI MM NOT_NAMED 1985-02-18 18:00:00 TS -12.2000 76.7000 main 2073 2071 O___________O_ jtwc_sh SH251985 -12.2000 76.7000 XX 35 -5 -12.2000 76.7000 TC 35 8 123
1985050S12076 1985 25 SI MM NOT_NAMED 1985-02-18 21:00:00 TS -12.4426 77.1275 main 2086 2086 P___________P_ SH251985 -12.4424 77.1650 XX 35 -5 -12.4427 77.0899 TC 35 10 120
1985050S12076 1985 25 SI MM NOT_NAMED 1985-02-19 00:00:00 TS -12.7000 77.6000 main 2110 2108 O___________O_ jtwc_sh SH251985 -12.7000 77.6000 XX 35 -5 -12.7000 77.6000 TC 35 10 120
1985050S12076 1985 25 SI MM NOT_NAMED 1985-02-19 03:00:00 TS -12.9499 78.0151 main 2125 2125 P___________P_ SH251985 -12.9499 78.0151 XX 35 -5 -12.9499 78.0151 TC 35 9 123
1985050S12076 1985 25 SI MM NOT_NAMED 1985-02-19 06:00:00 TS -13.2000 78.4000 main 2153 2152 O___________O_ jtwc_sh SH251985 -13.2000 78.4000 XX 35 -5 -13.2000 78.4000 TC 35 9 125
1985050S12076 1985 25 SI MM NOT_NAMED 1985-02-19 09:00:00 TS -13.4424 78.7502 main 2171 2171 P___________P_ SH251985 -13.4424 78.7502 XX 35 -5 -13.4424 78.7502 TC 35 8 126
1985050S12076 1985 25 SI MM NOT_NAMED 1985-02-19 12:00:00 TS -13.7000 79.1000 main 2202 2201 O___________O_ jtwc_sh SH251985 -13.7000 79.1000 XX 35 -5 -13.7000 79.1000 TC 35 9 127
1985050S12076 1985 25 SI MM NOT_NAMED 1985-02-19 15:00:00 TS -13.9774 79.4852 main 2232 2232 P___________P_ SH251985 -13.9774 79.4852 XX 35 -5 -13.9774 79.4852 TC 35 10 128
1985050S12076 1985 25 SI MM NOT_NAMED 1985-02-19 18:00:00 TS -14.3000 79.9000 main 2264 2264 O___________O_ jtwc_sh SH251985 -14.3000 79.9000 XX 35 -5 -14.3000 79.9000 TC 35 11 131
1985050S12076 1985 25 SI MM NOT_NAMED 1985-02-19 21:00:00 TS -14.6774 80.3277 main 2308 2307 P___________P_ SH251985 -14.6774 80.3277 XX 32 -5 -14.6774 80.3277 TC 32 12 133
1985050S12076 1985 25 SI MM NOT_NAMED 1985-02-20 00:00:00 TS -15.1000 80.8000 main 2352 2352 O___________O_ jtwc_sh SH251985 -15.1000 80.8000 XX 30 -5 -15.1000 80.8000 TC 30 13 132
1985050S12076 1985 25 SI MM NOT_NAMED 1985-02-20 03:00:00 TS -15.5423 81.3128 main 2398 2398 P___________P_ SH251985 -15.5423 81.3128 XX 30 -5 -15.5423 81.3128 TC 30 14 130
1985050S12076 1985 25 SI MM NOT_NAMED 1985-02-20 06:00:00 TS -16.0000 81.9000 main 2457 2437 O___________O_ jtwc_sh SH251985 -16.0000 81.9000 XX 30 -5 -16.0000 81.9000 TC 30 15 127
1985050S12076 1985 25 SI MM NOT_NAMED 1985-02-20 09:00:00 TS -16.4573 82.5627 main 2436 2411 P___________P_ SH251985 -16.4573 82.5627 XX 27 -5 -16.4573 82.5627 TC 27 16 124
1985050S12076 1985 25 SI MM NOT_NAMED 1985-02-20 12:00:00 TS -16.9000 83.3000 main 2411 2388 O___________O_ jtwc_sh SH251985 -16.9000 83.3000 XX 25 -5 -16.9000 83.3000 TC 25 17 121
1985050S12076 1985 25 SI MM NOT_NAMED 1985-02-20 15:00:00 TS -17.3072 84.0705 main 2381 2355 P___________P_ SH251985 -17.3072 84.0705 XX 25 -5 -17.3072 84.0705 TC 25 17 118
1985050S12076 1985 25 SI MM NOT_NAMED 1985-02-20 18:00:00 TS -17.7000 84.9000 main 2356 2333 O___________O_ jtwc_sh SH251985 -17.7000 84.9000 XX 25 -5 -17.7000 84.9000 TC 25 18 116
1985050S12076 1985 25 SI MM NOT_NAMED 1985-02-20 21:00:00 TS -18.0984 85.7840 main 2328 2308 P___________P_ SH251985 -18.0984 85.7840 XX 25 -5 -18.0984 85.7840 TC 25 19 115
1985050S12076 1985 25 SI MM NOT_NAMED 1985-02-21 00:00:00 TS -18.5000 86.7000 main 2304 O___________O_ jtwc_sh SH251985 -18.5000 86.7000 XX 25 -5 -18.5000 86.7000 TC 25 19 115

IBTrACS Databaseについて

本データベースは、米国NOAAが公開する1842年以降の世界の熱帯低気圧のベストトラックデータアーカイブInternational Best Track Archive for Climate Stewardship (IBTrACS)を、ウェブで閲覧しやすい形式に変換したものです。

最終更新日:2021-11-26